sensor_id;sensor_type;location;lat;lon;timestamp;pressure;altitude;pressure_sealevel;temperature;humidity
4449;BME280;2237;51.870;6.160;2022-08-20T00:01:03;101394.25;;;22.91;91.02
4449;BME280;2237;51.870;6.160;2022-08-20T00:03:34;101397.03;;;22.89;90.41
4449;BME280;2237;51.870;6.160;2022-08-20T00:06:11;101391.44;;;22.80;91.02
4449;BME280;2237;51.870;6.160;2022-08-20T00:08:38;101387.53;;;22.85;90.61
4449;BME280;2237;51.870;6.160;2022-08-20T00:11:07;101385.25;;;22.93;90.77
4449;BME280;2237;51.870;6.160;2022-08-20T00:13:38;101388.34;;;23.00;90.04
4449;BME280;2237;51.870;6.160;2022-08-20T00:16:09;101387.22;;;23.04;89.21
4449;BME280;2237;51.870;6.160;2022-08-20T00:18:36;101378.06;;;23.08;89.01
4449;BME280;2237;51.870;6.160;2022-08-20T00:21:10;101388.81;;;23.06;88.65
4449;BME280;2237;51.870;6.160;2022-08-20T00:23:47;101392.72;;;23.01;88.70
4449;BME280;2237;51.870;6.160;2022-08-20T00:26:15;101393.66;;;23.00;88.73
4449;BME280;2237;51.870;6.160;2022-08-20T00:28:41;101385.03;;;22.96;89.01
4449;BME280;2237;51.870;6.160;2022-08-20T00:31:11;101384.75;;;23.01;89.09
4449;BME280;2237;51.870;6.160;2022-08-20T00:33:38;101384.09;;;22.97;88.94
4449;BME280;2237;51.870;6.160;2022-08-20T00:36:06;101389.63;;;22.94;88.92
4449;BME280;2237;51.870;6.160;2022-08-20T00:38:37;101386.22;;;22.92;88.85
4449;BME280;2237;51.870;6.160;2022-08-20T00:41:06;101383.75;;;22.89;89.23
4449;BME280;2237;51.870;6.160;2022-08-20T00:43:41;101384.69;;;22.88;89.26
4449;BME280;2237;51.870;6.160;2022-08-20T00:46:18;101389.34;;;22.85;89.38
4449;BME280;2237;51.870;6.160;2022-08-20T00:48:47;101392.69;;;22.74;89.61
4449;BME280;2237;51.870;6.160;2022-08-20T00:54:01;101402.72;;;22.55;91.60
4449;BME280;2237;51.870;6.160;2022-08-20T00:56:30;101397.72;;;22.50;92.35
4449;BME280;2237;51.870;6.160;2022-08-20T00:59:00;101394.22;;;22.50;92.60
4449;BME280;2237;51.870;6.160;2022-08-20T01:01:28;101393.06;;;22.54;92.79
4449;BME280;2237;51.870;6.160;2022-08-20T01:03:54;101390.41;;;22.54;92.62
4449;BME280;2237;51.870;6.160;2022-08-20T01:06:22;101386.78;;;22.55;92.57
4449;BME280;2237;51.870;6.160;2022-08-20T01:08:50;101378.09;;;22.53;92.73
4449;BME280;2237;51.870;6.160;2022-08-20T01:11:17;101383.41;;;22.53;92.51
4449;BME280;2237;51.870;6.160;2022-08-20T01:13:47;101386.72;;;22.57;92.29
4449;BME280;2237;51.870;6.160;2022-08-20T01:16:22;101385.59;;;22.61;92.74
4449;BME280;2237;51.870;6.160;2022-08-20T01:18:53;101394.50;;;22.60;92.32
4449;BME280;2237;51.870;6.160;2022-08-20T01:21:24;101397.72;;;22.65;91.83
4449;BME280;2237;51.870;6.160;2022-08-20T01:24:02;101402.19;;;22.64;91.98
4449;BME280;2237;51.870;6.160;2022-08-20T01:26:38;101396.22;;;22.61;92.11
4449;BME280;2237;51.870;6.160;2022-08-20T01:29:14;101413.75;;;22.63;92.46
4449;BME280;2237;51.870;6.160;2022-08-20T01:31:43;101398.59;;;22.65;92.05
4449;BME280;2237;51.870;6.160;2022-08-20T01:34:14;101405.78;;;22.63;92.27
4449;BME280;2237;51.870;6.160;2022-08-20T01:36:52;101407.09;;;22.56;92.15
4449;BME280;2237;51.870;6.160;2022-08-20T01:39:29;101410.50;;;22.58;92.78
4449;BME280;2237;51.870;6.160;2022-08-20T01:44:23;101407.09;;;22.70;92.04
4449;BME280;2237;51.870;6.160;2022-08-20T01:46:52;101407.59;;;22.77;91.83
4449;BME280;2237;51.870;6.160;2022-08-20T01:49:27;101402.06;;;22.80;91.27
4449;BME280;2237;51.870;6.160;2022-08-20T01:51:58;101404.41;;;22.84;91.04
4449;BME280;2237;51.870;6.160;2022-08-20T01:54:26;101409.34;;;22.90;90.55
4449;BME280;2237;51.870;6.160;2022-08-20T01:56:59;101403.28;;;22.88;90.62
4449;BME280;2237;51.870;6.160;2022-08-20T01:59:27;101404.22;;;22.87;90.42
4449;BME280;2237;51.870;6.160;2022-08-20T02:01:55;101409.34;;;22.90;90.45
4449;BME280;2237;51.870;6.160;2022-08-20T02:04:23;101394.19;;;22.92;89.84
4449;BME280;2237;51.870;6.160;2022-08-20T02:06:54;101388.94;;;22.91;90.91
4449;BME280;2237;51.870;6.160;2022-08-20T02:09:33;101389.16;;;22.88;91.55
4449;BME280;2237;51.870;6.160;2022-08-20T02:12:00;101390.41;;;22.82;92.67
4449;BME280;2237;51.870;6.160;2022-08-20T02:14:29;101403.69;;;22.82;93.10
4449;BME280;2237;51.870;6.160;2022-08-20T02:16:56;101409.00;;;22.82;93.37
4449;BME280;2237;51.870;6.160;2022-08-20T02:19:33;101406.34;;;22.82;93.31
4449;BME280;2237;51.870;6.160;2022-08-20T02:22:03;101408.25;;;22.80;93.77
4449;BME280;2237;51.870;6.160;2022-08-20T02:24:32;101412.59;;;22.81;94.23
4449;BME280;2237;51.870;6.160;2022-08-20T02:26:58;101413.56;;;22.80;94.01
4449;BME280;2237;51.870;6.160;2022-08-20T02:29:25;101410.13;;;22.78;94.70
4449;BME280;2237;51.870;6.160;2022-08-20T02:31:52;101410.25;;;22.77;95.00
4449;BME280;2237;51.870;6.160;2022-08-20T02:34:40;101414.69;;;22.76;95.10
4449;BME280;2237;51.870;6.160;2022-08-20T02:37:07;101424.25;;;22.79;95.85
4449;BME280;2237;51.870;6.160;2022-08-20T02:39:33;101422.84;;;22.73;95.88
4449;BME280;2237;51.870;6.160;2022-08-20T02:42:00;101424.84;;;22.70;95.91
4449;BME280;2237;51.870;6.160;2022-08-20T02:44:30;101421.44;;;22.68;96.02
4449;BME280;2237;51.870;6.160;2022-08-20T02:46:57;101412.13;;;22.61;95.64
4449;BME280;2237;51.870;6.160;2022-08-20T02:49:25;101423.97;;;22.55;96.71
4449;BME280;2237;51.870;6.160;2022-08-20T02:51:51;101415.38;;;22.51;97.51
4449;BME280;2237;51.870;6.160;2022-08-20T02:54:18;101417.25;;;22.49;98.13
4449;BME280;2237;51.870;6.160;2022-08-20T02:56:45;101408.63;;;22.46;98.22
4449;BME280;2237;51.870;6.160;2022-08-20T02:59:11;101417.53;;;22.45;98.42
4449;BME280;2237;51.870;6.160;2022-08-20T03:01:45;101408.63;;;22.46;99.28
4449;BME280;2237;51.870;6.160;2022-08-20T03:04:21;101412.22;;;22.45;98.80
4449;BME280;2237;51.870;6.160;2022-08-20T03:06:51;101413.28;;;22.42;98.86
4449;BME280;2237;51.870;6.160;2022-08-20T03:09:17;101421.13;;;22.44;98.65
4449;BME280;2237;51.870;6.160;2022-08-20T03:11:44;101413.16;;;22.44;99.22
4449;BME280;2237;51.870;6.160;2022-08-20T03:14:10;101412.03;;;22.48;98.91
4449;BME280;2237;51.870;6.160;2022-08-20T03:16:37;101408.63;;;22.46;98.55
4449;BME280;2237;51.870;6.160;2022-08-20T03:19:03;101403.13;;;22.49;97.97
4449;BME280;2237;51.870;6.160;2022-08-20T03:21:30;101400.09;;;22.41;98.23
4449;BME280;2237;51.870;6.160;2022-08-20T03:23:56;101409.88;;;22.40;98.49
4449;BME280;2237;51.870;6.160;2022-08-20T03:26:22;101407.31;;;22.39;98.67
4449;BME280;2237;51.870;6.160;2022-08-20T03:28:49;101411.38;;;22.44;98.49
4449;BME280;2237;51.870;6.160;2022-08-20T03:31:15;101408.91;;;22.41;97.85
4449;BME280;2237;51.870;6.160;2022-08-20T03:33:42;101416.97;;;22.40;97.95
4449;BME280;2237;51.870;6.160;2022-08-20T03:36:22;101411.88;;;22.37;98.23
4449;BME280;2237;51.870;6.160;2022-08-20T03:38:59;101413.00;;;22.33;98.42
4449;BME280;2237;51.870;6.160;2022-08-20T03:41:26;101403.91;;;22.23;99.37
4449;BME280;2237;51.870;6.160;2022-08-20T03:43:52;101407.38;;;22.23;99.06
4449;BME280;2237;51.870;6.160;2022-08-20T03:46:22;101407.56;;;22.20;100.00
4449;BME280;2237;51.870;6.160;2022-08-20T03:48:51;101417.34;;;22.20;99.60
4449;BME280;2237;51.870;6.160;2022-08-20T03:51:27;101413.09;;;22.17;99.93
4449;BME280;2237;51.870;6.160;2022-08-20T03:53:55;101418.09;;;22.22;100.00
4449;BME280;2237;51.870;6.160;2022-08-20T03:56:21;101420.38;;;22.28;99.85
4449;BME280;2237;51.870;6.160;2022-08-20T03:58:48;101414.59;;;22.21;99.27
4449;BME280;2237;51.870;6.160;2022-08-20T04:01:14;101411.44;;;22.15;99.22
4449;BME280;2237;51.870;6.160;2022-08-20T04:04:01;101415.16;;;22.12;98.78
4449;BME280;2237;51.870;6.160;2022-08-20T04:06:28;101408.41;;;22.07;99.38
4449;BME280;2237;51.870;6.160;2022-08-20T04:08:55;101419.88;;;22.07;99.79
4449;BME280;2237;51.870;6.160;2022-08-20T04:11:21;101423.41;;;22.08;100.00
4449;BME280;2237;51.870;6.160;2022-08-20T04:13:49;101421.44;;;22.11;100.00
4449;BME280;2237;51.870;6.160;2022-08-20T04:16:16;101421.59;;;22.08;100.00
4449;BME280;2237;51.870;6.160;2022-08-20T04:18:45;101421.59;;;22.08;99.96
4449;BME280;2237;51.870;6.160;2022-08-20T04:21:31;101432.19;;;21.94;100.00
4449;BME280;2237;51.870;6.160;2022-08-20T04:23:59;101432.03;;;21.81;100.00
4449;BME280;2237;51.870;6.160;2022-08-20T04:26:25;101430.41;;;21.79;100.00
4449;BME280;2237;51.870;6.160;2022-08-20T04:28:52;101426.22;;;21.75;100.00
4449;BME280;2237;51.870;6.160;2022-08-20T04:31:20;101426.16;;;21.76;100.00
4449;BME280;2237;51.870;6.160;2022-08-20T04:33:51;101437.16;;;21.84;100.00
4449;BME280;2237;51.870;6.160;2022-08-20T04:36:18;101435.09;;;21.89;100.00
4449;BME280;2237;51.870;6.160;2022-08-20T04:38:44;101441.16;;;21.91;100.00
4449;BME280;2237;51.870;6.160;2022-08-20T04:41:19;101447.72;;;22.00;100.00
4449;BME280;2237;51.870;6.160;2022-08-20T04:43:49;101445.75;;;22.04;100.00
4449;BME280;2237;51.870;6.160;2022-08-20T04:46:15;101447.66;;;22.02;100.00
4449;BME280;2237;51.870;6.160;2022-08-20T04:48:42;101443.09;;;22.04;100.00
4449;BME280;2237;51.870;6.160;2022-08-20T04:51:16;101441.66;;;21.98;100.00
4449;BME280;2237;51.870;6.160;2022-08-20T04:53:43;101455.78;;;21.99;100.00
4449;BME280;2237;51.870;6.160;2022-08-20T04:56:17;101458.25;;;22.02;100.00
4449;BME280;2237;51.870;6.160;2022-08-20T04:58:45;101465.09;;;22.06;100.00
4449;BME280;2237;51.870;6.160;2022-08-20T05:01:14;101469.25;;;22.10;100.00
4449;BME280;2237;51.870;6.160;2022-08-20T05:03:41;101463.09;;;22.09;100.00
4449;BME280;2237;51.870;6.160;2022-08-20T05:06:09;101459.88;;;22.04;100.00
4449;BME280;2237;51.870;6.160;2022-08-20T05:08:37;101465.63;;;21.97;100.00
4449;BME280;2237;51.870;6.160;2022-08-20T05:11:05;101469.22;;;21.95;100.00
4449;BME280;2237;51.870;6.160;2022-08-20T05:13:53;101466.41;;;21.99;100.00
4449;BME280;2237;51.870;6.160;2022-08-20T05:16:20;101470.66;;;22.01;100.00
4449;BME280;2237;51.870;6.160;2022-08-20T05:18:46;101479.00;;;22.09;100.00
4449;BME280;2237;51.870;6.160;2022-08-20T05:21:19;101476.09;;;22.14;100.00
4449;BME280;2237;51.870;6.160;2022-08-20T05:23:45;101477.59;;;22.18;100.00
4449;BME280;2237;51.870;6.160;2022-08-20T05:26:12;101478.38;;;22.20;100.00
4449;BME280;2237;51.870;6.160;2022-08-20T05:28:42;101481.22;;;22.17;100.00
4449;BME280;2237;51.870;6.160;2022-08-20T05:31:25;101477.97;;;22.12;100.00
4449;BME280;2237;51.870;6.160;2022-08-20T05:34:10;101477.97;;;22.12;100.00
4449;BME280;2237;51.870;6.160;2022-08-20T05:36:40;101476.47;;;22.08;100.00
4449;BME280;2237;51.870;6.160;2022-08-20T05:39:08;101487.94;;;22.08;100.00
4449;BME280;2237;51.870;6.160;2022-08-20T05:41:36;101485.19;;;22.10;100.00
4449;BME280;2237;51.870;6.160;2022-08-20T05:44:04;101486.53;;;22.17;100.00
4449;BME280;2237;51.870;6.160;2022-08-20T05:46:36;101489.56;;;22.25;100.00
4449;BME280;2237;51.870;6.160;2022-08-20T05:49:11;101485.41;;;22.35;100.00
4449;BME280;2237;51.870;6.160;2022-08-20T05:51:38;101490.63;;;22.50;100.00
4449;BME280;2237;51.870;6.160;2022-08-20T05:54:05;101498.31;;;22.55;100.00
4449;BME280;2237;51.870;6.160;2022-08-20T05:56:33;101496.44;;;22.57;99.41
4449;BME280;2237;51.870;6.160;2022-08-20T05:59:03;101485.28;;;22.66;99.77
4449;BME280;2237;51.870;6.160;2022-08-20T06:01:32;101484.31;;;22.67;99.48
4449;BME280;2237;51.870;6.160;2022-08-20T06:03:59;101486.78;;;22.70;99.10
4449;BME280;2237;51.870;6.160;2022-08-20T06:06:44;101483.91;;;22.59;98.54
4449;BME280;2237;51.870;6.160;2022-08-20T06:09:15;101487.22;;;22.63;98.91
4449;BME280;2237;51.870;6.160;2022-08-20T06:11:57;101497.50;;;22.69;98.18
4449;BME280;2237;51.870;6.160;2022-08-20T06:14:25;101494.00;;;22.68;98.27
4449;BME280;2237;51.870;6.160;2022-08-20T06:16:51;101490.94;;;22.60;98.30
4449;BME280;2237;51.870;6.160;2022-08-20T06:19:24;101498.53;;;22.52;99.32
4449;BME280;2237;51.870;6.160;2022-08-20T06:21:52;101496.88;;;22.49;99.91
4449;BME280;2237;51.870;6.160;2022-08-20T06:24:19;101507.41;;;22.51;99.34
4449;BME280;2237;51.870;6.160;2022-08-20T06:26:46;101498.91;;;22.46;98.83
4449;BME280;2237;51.870;6.160;2022-08-20T06:29:14;101508.53;;;22.47;98.67
4449;BME280;2237;51.870;6.160;2022-08-20T06:31:41;101495.81;;;22.38;98.10
4449;BME280;2237;51.870;6.160;2022-08-20T06:34:07;101499.44;;;22.37;97.98
4449;BME280;2237;51.870;6.160;2022-08-20T06:36:34;101497.91;;;22.33;97.90
4449;BME280;2237;51.870;6.160;2022-08-20T06:39:00;101496.31;;;22.30;98.65
4449;BME280;2237;51.870;6.160;2022-08-20T06:41:27;101489.88;;;22.34;98.52
4449;BME280;2237;51.870;6.160;2022-08-20T06:44:03;101493.78;;;22.43;98.96
4449;BME280;2237;51.870;6.160;2022-08-20T06:46:30;101503.72;;;22.53;98.50
4449;BME280;2237;51.870;6.160;2022-08-20T06:48:57;101501.75;;;22.57;97.45
4449;BME280;2237;51.870;6.160;2022-08-20T06:51:24;101505.34;;;22.56;97.06
4449;BME280;2237;51.870;6.160;2022-08-20T06:53:51;101500.13;;;22.55;96.38
4449;BME280;2237;51.870;6.160;2022-08-20T06:56:17;101496.44;;;22.57;96.50
4449;BME280;2237;51.870;6.160;2022-08-20T06:58:44;101499.56;;;22.64;96.08
4449;BME280;2237;51.870;6.160;2022-08-20T07:01:11;101496.66;;;22.68;95.09
4449;BME280;2237;51.870;6.160;2022-08-20T07:03:38;101495.13;;;22.64;94.88
4449;BME280;2237;51.870;6.160;2022-08-20T07:06:19;101499.50;;;22.65;94.25
4449;BME280;2237;51.870;6.160;2022-08-20T07:08:46;101499.13;;;22.71;94.26
4449;BME280;2237;51.870;6.160;2022-08-20T07:11:12;101494.56;;;22.73;94.39
4449;BME280;2237;51.870;6.160;2022-08-20T07:13:39;101501.19;;;22.80;94.05
4449;BME280;2237;51.870;6.160;2022-08-20T07:16:06;101508.97;;;22.83;94.62
4449;BME280;2237;51.870;6.160;2022-08-20T07:18:33;101506.13;;;22.86;93.80
4449;BME280;2237;51.870;6.160;2022-08-20T07:21:00;101506.69;;;22.91;93.95
4449;BME280;2237;51.870;6.160;2022-08-20T07:23:26;101508.59;;;22.89;91.86
4449;BME280;2237;51.870;6.160;2022-08-20T07:25:53;101504.78;;;22.93;91.77
4449;BME280;2237;51.870;6.160;2022-08-20T07:28:23;101519.78;;;22.94;90.82
4449;BME280;2237;51.870;6.160;2022-08-20T07:30:51;101513.53;;;22.95;91.14
4449;BME280;2237;51.870;6.160;2022-08-20T07:33:40;101515.50;;;23.06;90.74
4449;BME280;2237;51.870;6.160;2022-08-20T07:36:07;101512.72;;;23.07;89.46
4449;BME280;2237;51.870;6.160;2022-08-20T07:38:35;101515.78;;;23.16;89.13
4449;BME280;2237;51.870;6.160;2022-08-20T07:41:10;101514.63;;;23.20;87.85
4449;BME280;2237;51.870;6.160;2022-08-20T07:43:39;101512.88;;;23.33;87.71
4449;BME280;2237;51.870;6.160;2022-08-20T07:46:07;101514.78;;;23.45;85.82
4449;BME280;2237;51.870;6.160;2022-08-20T07:48:36;101515.34;;;23.50;84.47
4449;BME280;2237;51.870;6.160;2022-08-20T07:51:19;101517.50;;;23.57;83.54
4449;BME280;2237;51.870;6.160;2022-08-20T07:53:49;101521.88;;;23.58;83.29
4449;BME280;2237;51.870;6.160;2022-08-20T07:56:20;101515.16;;;23.53;80.86
4449;BME280;2237;51.870;6.160;2022-08-20T07:58:51;101526.44;;;23.56;79.71
4449;BME280;2237;51.870;6.160;2022-08-20T08:01:21;101527.47;;;23.54;78.47
4449;BME280;2237;51.870;6.160;2022-08-20T08:03:48;101530.25;;;23.52;78.40
4449;BME280;2237;51.870;6.160;2022-08-20T08:06:20;101537.66;;;23.47;77.92
4449;BME280;2237;51.870;6.160;2022-08-20T08:08:58;101542.78;;;23.36;77.80
4449;BME280;2237;51.870;6.160;2022-08-20T08:11:27;101543.28;;;23.29;77.82
4449;BME280;2237;51.870;6.160;2022-08-20T08:13:53;101545.06;;;23.28;78.38
4449;BME280;2237;51.870;6.160;2022-08-20T08:16:20;101536.22;;;23.28;78.46
4449;BME280;2237;51.870;6.160;2022-08-20T08:18:50;101543.63;;;23.37;78.31
4449;BME280;2237;51.870;6.160;2022-08-20T08:21:18;101545.69;;;23.60;76.82
4449;BME280;2237;51.870;6.160;2022-08-20T08:23:46;101541.63;;;23.81;75.18
4449;BME280;2237;51.870;6.160;2022-08-20T08:26:14;101536.75;;;23.88;75.02
4449;BME280;2237;51.870;6.160;2022-08-20T08:28:45;101536.66;;;23.89;73.71
4449;BME280;2237;51.870;6.160;2022-08-20T08:31:12;101538.25;;;23.92;72.52
4449;BME280;2237;51.870;6.160;2022-08-20T08:33:39;101529.13;;;23.96;72.76
4449;BME280;2237;51.870;6.160;2022-08-20T08:36:10;101535.09;;;23.99;71.85
4449;BME280;2237;51.870;6.160;2022-08-20T08:38:39;101543.94;;;24.00;71.57
4449;BME280;2237;51.870;6.160;2022-08-20T08:44:04;101546.66;;;23.59;66.57
4449;BME280;2237;51.870;6.160;2022-08-20T08:46:37;101549.31;;;23.31;64.95
4449;BME280;2237;51.870;6.160;2022-08-20T08:49:11;101551.75;;;23.07;65.79
4449;BME280;2237;51.870;6.160;2022-08-20T08:51:42;101556.97;;;22.94;65.82
4449;BME280;2237;51.870;6.160;2022-08-20T08:54:14;101553.84;;;22.88;66.12
4449;BME280;2237;51.870;6.160;2022-08-20T08:56:42;101552.53;;;22.95;65.85
4449;BME280;2237;51.870;6.160;2022-08-20T08:59:16;101551.28;;;23.00;63.52
4449;BME280;2237;51.870;6.160;2022-08-20T09:01:46;101547.19;;;23.09;63.10
4449;BME280;2237;51.870;6.160;2022-08-20T09:04:27;101554.09;;;23.26;63.88
4449;BME280;2237;51.870;6.160;2022-08-20T09:06:55;101552.47;;;23.37;63.82
4449;BME280;2237;51.870;6.160;2022-08-20T09:09:28;101558.81;;;23.35;61.11
4449;BME280;2237;51.870;6.160;2022-08-20T09:12:11;101558.09;;;23.47;59.66
4449;BME280;2237;51.870;6.160;2022-08-20T09:14:38;101563.75;;;23.55;59.22
4449;BME280;2237;51.870;6.160;2022-08-20T09:17:05;101556.31;;;23.60;58.16
4449;BME280;2237;51.870;6.160;2022-08-20T09:19:32;101566.91;;;23.74;58.52
4449;BME280;2237;51.870;6.160;2022-08-20T09:22:06;101574.28;;;23.83;56.39
4449;BME280;2237;51.870;6.160;2022-08-20T09:24:33;101573.16;;;23.87;56.27
4449;BME280;2237;51.870;6.160;2022-08-20T09:27:00;101570.69;;;23.84;53.72
4449;BME280;2237;51.870;6.160;2022-08-20T09:29:26;101556.97;;;23.90;53.88
4449;BME280;2237;51.870;6.160;2022-08-20T09:34:39;101571.00;;;23.80;53.31
4449;BME280;2237;51.870;6.160;2022-08-20T09:37:07;101569.34;;;23.91;52.92
4449;BME280;2237;51.870;6.160;2022-08-20T09:39:33;101572.34;;;23.99;51.66
4449;BME280;2237;51.870;6.160;2022-08-20T09:42:09;101568.81;;;24.26;51.80
4449;BME280;2237;51.870;6.160;2022-08-20T09:44:36;101568.00;;;24.38;51.76
4449;BME280;2237;51.870;6.160;2022-08-20T09:47:03;101561.81;;;24.37;51.29
4449;BME280;2237;51.870;6.160;2022-08-20T09:49:30;101570.09;;;24.33;52.46
4449;BME280;2237;51.870;6.160;2022-08-20T09:51:58;101566.25;;;24.11;49.11
4449;BME280;2237;51.870;6.160;2022-08-20T09:54:25;101561.78;;;23.98;48.76
4449;BME280;2237;51.870;6.160;2022-08-20T09:57:06;101570.03;;;24.07;49.28
4449;BME280;2237;51.870;6.160;2022-08-20T09:59:34;101561.38;;;24.31;48.85
4449;BME280;2237;51.870;6.160;2022-08-20T10:02:01;101555.84;;;24.34;48.20
4449;BME280;2237;51.870;6.160;2022-08-20T10:04:28;101559.78;;;24.53;49.61
4449;BME280;2237;51.870;6.160;2022-08-20T10:06:55;101558.44;;;24.60;49.44
4449;BME280;2237;51.870;6.160;2022-08-20T10:09:22;101562.25;;;24.69;49.45
4449;BME280;2237;51.870;6.160;2022-08-20T10:11:49;101553.09;;;24.73;48.99
4449;BME280;2237;51.870;6.160;2022-08-20T10:14:15;101558.09;;;24.90;48.29
4449;BME280;2237;51.870;6.160;2022-08-20T10:16:42;101565.09;;;25.16;47.25
4449;BME280;2237;51.870;6.160;2022-08-20T10:19:08;101563.09;;;25.20;46.61
4449;BME280;2237;51.870;6.160;2022-08-20T10:21:35;101565.25;;;25.02;46.20
4449;BME280;2237;51.870;6.160;2022-08-20T10:24:04;101565.69;;;24.96;45.43
4449;BME280;2237;51.870;6.160;2022-08-20T10:26:31;101573.97;;;24.79;44.06
4449;BME280;2237;51.870;6.160;2022-08-20T10:28:57;101562.91;;;24.85;44.59
4449;BME280;2237;51.870;6.160;2022-08-20T10:31:24;101560.69;;;25.04;43.34
4449;BME280;2237;51.870;6.160;2022-08-20T10:33:50;101566.38;;;25.23;43.21
4449;BME280;2237;51.870;6.160;2022-08-20T10:36:16;101559.66;;;25.31;44.07
4449;BME280;2237;51.870;6.160;2022-08-20T10:38:43;101566.91;;;25.28;43.73
4449;BME280;2237;51.870;6.160;2022-08-20T10:41:10;101575.25;;;25.11;43.75
4449;BME280;2237;51.870;6.160;2022-08-20T10:43:37;101562.00;;;25.22;42.26
4449;BME280;2237;51.870;6.160;2022-08-20T10:46:03;101569.34;;;25.57;41.51
4449;BME280;2237;51.870;6.160;2022-08-20T10:48:30;101573.13;;;25.89;40.65
4449;BME280;2237;51.870;6.160;2022-08-20T10:50:57;101571.66;;;25.85;40.94
4449;BME280;2237;51.870;6.160;2022-08-20T10:53:23;101570.56;;;25.64;41.72
4449;BME280;2237;51.870;6.160;2022-08-20T10:55:52;101574.97;;;25.40;40.79
4449;BME280;2237;51.870;6.160;2022-08-20T10:58:18;101578.44;;;25.29;41.24
4449;BME280;2237;51.870;6.160;2022-08-20T11:00:49;101576.19;;;25.36;41.12
4449;BME280;2237;51.870;6.160;2022-08-20T11:03:15;101568.25;;;25.47;42.25
4449;BME280;2237;51.870;6.160;2022-08-20T11:05:44;101574.97;;;25.40;43.13
4449;BME280;2237;51.870;6.160;2022-08-20T11:08:11;101570.13;;;25.34;43.55
4449;BME280;2237;51.870;6.160;2022-08-20T11:10:38;101566.09;;;25.03;42.23
4449;BME280;2237;51.870;6.160;2022-08-20T11:13:06;101571.84;;;25.09;42.01
4449;BME280;2237;51.870;6.160;2022-08-20T11:15:35;101575.22;;;25.49;41.01
4449;BME280;2237;51.870;6.160;2022-08-20T11:18:07;101577.66;;;25.76;39.42
4449;BME280;2237;51.870;6.160;2022-08-20T11:20:34;101570.78;;;26.08;38.79
4449;BME280;2237;51.870;6.160;2022-08-20T11:23:01;101570.53;;;26.00;40.30
4449;BME280;2237;51.870;6.160;2022-08-20T11:25:27;101572.56;;;25.73;40.38
4449;BME280;2237;51.870;6.160;2022-08-20T11:27:55;101583.13;;;25.51;38.59
4449;BME280;2237;51.870;6.160;2022-08-20T11:30:30;101580.25;;;25.28;37.46
4449;BME280;2237;51.870;6.160;2022-08-20T11:32:58;101580.50;;;25.62;38.95
4449;BME280;2237;51.870;6.160;2022-08-20T11:35:27;101582.81;;;25.66;38.25
4449;BME280;2237;51.870;6.160;2022-08-20T11:38:13;101574.38;;;25.72;38.87
4449;BME280;2237;51.870;6.160;2022-08-20T11:40:40;101575.22;;;25.73;38.50
4449;BME280;2237;51.870;6.160;2022-08-20T11:43:06;101574.81;;;25.66;40.42
4449;BME280;2237;51.870;6.160;2022-08-20T11:45:44;101583.25;;;25.97;39.06
4449;BME280;2237;51.870;6.160;2022-08-20T11:48:11;101586.44;;;26.13;38.71
4449;BME280;2237;51.870;6.160;2022-08-20T11:50:37;101584.75;;;26.35;37.43
4449;BME280;2237;51.870;6.160;2022-08-20T11:53:04;101571.19;;;26.50;37.47
4449;BME280;2237;51.870;6.160;2022-08-20T11:55:33;101571.06;;;26.40;37.54
4449;BME280;2237;51.870;6.160;2022-08-20T11:58:00;101581.59;;;26.42;35.65
4449;BME280;2237;51.870;6.160;2022-08-20T12:00:29;101572.84;;;26.28;36.37
4449;BME280;2237;51.870;6.160;2022-08-20T12:03:00;101569.47;;;26.14;36.78
4449;BME280;2237;51.870;6.160;2022-08-20T12:05:26;101566.47;;;26.18;36.65
4449;BME280;2237;51.870;6.160;2022-08-20T12:07:55;101567.59;;;26.27;36.45
4449;BME280;2237;51.870;6.160;2022-08-20T12:10:21;101577.41;;;25.92;34.76
4449;BME280;2237;51.870;6.160;2022-08-20T12:12:49;101577.31;;;26.04;35.58
4449;BME280;2237;51.870;6.160;2022-08-20T12:15:16;101570.38;;;26.14;36.50
4449;BME280;2237;51.870;6.160;2022-08-20T12:17:42;101570.34;;;26.49;35.50
4449;BME280;2237;51.870;6.160;2022-08-20T12:20:11;101572.31;;;26.58;35.21
4449;BME280;2237;51.870;6.160;2022-08-20T12:22:38;101576.16;;;26.43;35.56
4449;BME280;2237;51.870;6.160;2022-08-20T12:25:07;101571.38;;;26.35;34.93
4449;BME280;2237;51.870;6.160;2022-08-20T12:27:35;101576.25;;;26.42;35.29
4449;BME280;2237;51.870;6.160;2022-08-20T12:30:10;101576.66;;;26.59;34.83
4449;BME280;2237;51.870;6.160;2022-08-20T12:32:37;101575.63;;;26.73;34.76
4449;BME280;2237;51.870;6.160;2022-08-20T12:35:05;101579.25;;;26.72;33.01
4449;BME280;2237;51.870;6.160;2022-08-20T12:37:33;101573.03;;;26.71;33.67
4449;BME280;2237;51.870;6.160;2022-08-20T12:40:03;101575.81;;;26.59;33.39
4449;BME280;2237;51.870;6.160;2022-08-20T12:42:30;101585.03;;;26.44;33.62
4449;BME280;2237;51.870;6.160;2022-08-20T12:44:57;101587.94;;;26.41;33.10
4449;BME280;2237;51.870;6.160;2022-08-20T12:47:30;101569.44;;;26.83;32.79
4449;BME280;2237;51.870;6.160;2022-08-20T12:49:59;101567.03;;;26.91;33.05
4449;BME280;2237;51.870;6.160;2022-08-20T12:52:28;101570.28;;;26.73;32.85
4449;BME280;2237;51.870;6.160;2022-08-20T12:54:55;101572.50;;;26.90;32.83
4449;BME280;2237;51.870;6.160;2022-08-20T12:57:26;101579.78;;;26.88;30.63
4449;BME280;2237;51.870;6.160;2022-08-20T12:59:58;101564.97;;;26.95;31.72
4449;BME280;2237;51.870;6.160;2022-08-20T13:02:26;101581.47;;;26.89;31.56
4449;BME280;2237;51.870;6.160;2022-08-20T13:04:53;101582.72;;;27.07;31.71
4449;BME280;2237;51.870;6.160;2022-08-20T13:07:20;101569.53;;;27.37;31.39
4449;BME280;2237;51.870;6.160;2022-08-20T13:09:47;101575.38;;;27.65;30.55
4449;BME280;2237;51.870;6.160;2022-08-20T13:12:14;101567.56;;;27.73;29.89
4449;BME280;2237;51.870;6.160;2022-08-20T13:14:41;101567.00;;;27.36;30.66
4449;BME280;2237;51.870;6.160;2022-08-20T13:17:08;101571.50;;;27.35;30.49
4449;BME280;2237;51.870;6.160;2022-08-20T13:19:36;101577.59;;;27.26;29.89
4449;BME280;2237;51.870;6.160;2022-08-20T13:22:03;101582.91;;;27.37;30.25
4449;BME280;2237;51.870;6.160;2022-08-20T13:24:30;101582.81;;;27.50;29.97
4449;BME280;2237;51.870;6.160;2022-08-20T13:27:09;101568.25;;;27.75;29.19
4449;BME280;2237;51.870;6.160;2022-08-20T13:29:36;101555.44;;;27.46;29.36
4449;BME280;2237;51.870;6.160;2022-08-20T13:32:04;101560.78;;;27.58;29.27